Time;durP1;ratioP1;P1;durP2;ratioP2;P2;SDS_P1;SDS_P2;PMS_P1;PMS_P2;Temp;Humidity;BMP_temperature;BMP_pressure;BME280_temperature;BME280_humidity;BME280_pressure;Samples;Min_cycle;Max_cycle;Signal;HPM_P1;HPM_P2
2024/03/08 00:02:16;;;;;;;35.47;14.23;;;3.50;99.30;;;;;;5011998;28;20052;-68
2024/03/08 00:04:42;;;;;;;32.08;14.13;;;3.50;99.40;;;;;;5019323;28;20281;-68
2024/03/08 00:07:08;;;;;;;39.85;15.35;;;3.50;99.50;;;;;;5015949;28;20042;-69
2024/03/08 00:09:33;;;;;;;33.05;14.07;;;3.50;99.50;;;;;;5015628;28;20510;-68
2024/03/08 00:11:59;;;;;;;33.63;13.73;;;3.50;99.50;;;;;;5015230;28;20089;-69
2024/03/08 00:14:25;;;;;;;33.33;13.73;;;3.50;99.50;;;;;;5015412;28;20030;-69
2024/03/08 00:16:52;;;;;;;32.65;13.73;;;3.50;99.60;;;;;;5015818;28;20033;-68
2024/03/08 00:19:18;;;;;;;38.47;15.07;;;3.50;99.60;;;;;;5017654;28;20026;-68
2024/03/08 00:21:43;;;;;;;34.58;14.60;;;3.50;99.80;;;;;;5016816;28;20036;-69
2024/03/08 00:24:09;;;;;;;34.95;14.55;;;3.50;99.50;;;;;;5020578;28;20157;-67
2024/03/08 00:26:34;;;;;;;34.50;14.93;;;3.40;99.50;;;;;;5017175;28;20030;-68
2024/03/08 00:29:00;;;;;;;32.53;14.35;;;3.40;99.50;;;;;;5013349;28;20068;-69
2024/03/08 00:31:26;;;;;;;29.58;14.02;;;3.40;99.50;;;;;;5015256;28;20034;-68
2024/03/08 00:33:52;;;;;;;32.60;15.38;;;3.30;99.60;;;;;;5020129;28;20597;-69
2024/03/08 00:36:18;;;;;;;35.97;14.75;;;3.30;99.70;;;;;;5016545;28;20055;-68
2024/03/08 00:38:43;;;;;;;34.88;14.13;;;3.30;99.70;;;;;;5014265;28;20038;-68
2024/03/08 00:41:09;;;;;;;30.92;14.73;;;3.30;99.80;;;;;;5009083;28;20049;-68
2024/03/08 00:43:34;;;;;;;28.92;13.98;;;3.30;99.80;;;;;;5017376;28;20473;-68
2024/03/08 00:46:01;;;;;;;39.97;15.65;;;3.20;99.80;;;;;;5017206;28;20576;-67
2024/03/08 00:48:26;;;;;;;35.08;14.00;;;3.10;99.80;;;;;;5020373;28;20042;-69
2024/03/08 00:50:52;;;;;;;32.72;15.00;;;3.20;99.70;;;;;;5020764;28;20032;-68
2024/03/08 00:53:18;;;;;;;38.58;14.63;;;3.10;99.80;;;;;;5012469;28;20064;-69
2024/03/08 00:55:46;;;;;;;36.72;14.55;;;3.10;99.90;;;;;;5015949;28;20084;-67
2024/03/08 00:58:12;;;;;;;;;;;3.00;99.90;;;;;;5018651;28;20751;-68
2024/03/08 01:00:38;;;;;;;32.08;13.38;;;3.00;99.90;;;;;;5016858;28;19959;-67
2024/03/08 01:03:04;;;;;;;36.42;16.02;;;2.90;99.90;;;;;;5019180;28;20025;-69
2024/03/08 01:05:30;;;;;;;35.50;14.85;;;2.90;99.90;;;;;;5016022;28;20481;-68
2024/03/08 01:07:56;;;;;;;34.42;14.95;;;2.90;99.90;;;;;;5015001;28;20037;-68
2024/03/08 01:10:22;;;;;;;36.17;14.88;;;2.90;99.90;;;;;;5014839;28;20030;-68
2024/03/08 01:12:49;;;;;;;33.90;14.05;;;2.90;99.90;;;;;;5018773;28;20037;-67
2024/03/08 01:15:15;;;;;;;36.15;14.35;;;3.00;99.90;;;;;;5015742;28;20030;-68
2024/03/08 01:17:41;;;;;;;42.40;15.88;;;2.90;99.90;;;;;;5013712;28;20048;-67
2024/03/08 01:20:10;;;;;;;29.33;13.95;;;2.90;99.90;;;;;;5023931;28;20405;-68
2024/03/08 01:22:36;;;;;;;35.92;15.68;;;2.90;99.90;;;;;;5011649;28;20038;-68
2024/03/08 01:25:04;;;;;;;36.05;15.32;;;2.90;99.90;;;;;;5015249;28;20391;-67
2024/03/08 01:27:30;;;;;;;38.58;14.85;;;2.80;99.90;;;;;;5021583;28;20270;-68
2024/03/08 01:29:55;;;;;;;33.83;15.43;;;2.80;99.90;;;;;;5016595;28;20109;-68
2024/03/08 01:32:23;;;;;;;32.70;14.10;;;2.80;99.90;;;;;;5015102;28;20025;-67
2024/03/08 01:34:49;;;;;;;34.55;14.38;;;2.80;99.90;;;;;;5014842;28;20045;-68
2024/03/08 01:37:14;;;;;;;35.35;14.93;;;2.80;99.90;;;;;;5017459;28;20041;-67
2024/03/08 01:39:40;;;;;;;36.80;16.35;;;2.80;99.90;;;;;;5015850;28;20091;-67
2024/03/08 01:42:05;;;;;;;29.35;13.82;;;2.80;99.90;;;;;;5019711;28;20161;-67
2024/03/08 01:44:31;;;;;;;33.70;14.38;;;2.70;99.90;;;;;;5019003;28;20131;-67
2024/03/08 01:46:57;;;;;;;34.58;14.07;;;2.70;99.90;;;;;;5015799;28;20126;-67
2024/03/08 01:49:25;;;;;;;34.95;14.85;;;2.70;99.90;;;;;;5019660;28;20029;-68
2024/03/08 01:51:51;;;;;;;33.58;14.35;;;2.70;99.90;;;;;;5015335;28;20029;-67
2024/03/08 01:54:19;;;;;;;34.90;14.57;;;2.60;99.90;;;;;;5020640;28;20037;-67
2024/03/08 01:56:46;;;;;;;33.25;14.85;;;2.60;99.90;;;;;;5014761;28;20038;-67
2024/03/08 01:59:12;;;;;;;37.40;15.90;;;2.60;99.90;;;;;;5004726;28;20030;-68
2024/03/08 02:01:38;;;;;;;36.55;15.00;;;2.60;99.90;;;;;;5007718;28;20037;-67
2024/03/08 02:04:06;;;;;;;35.40;15.25;;;2.50;99.90;;;;;;5012592;28;20026;-67
2024/03/08 02:06:32;;;;;;;39.85;14.15;;;2.50;99.90;;;;;;5011691;28;20029;-67
2024/03/08 02:08:58;;;;;;;36.72;14.30;;;2.50;99.90;;;;;;5011950;28;20438;-68
2024/03/08 02:11:24;;;;;;;36.22;15.13;;;2.40;99.90;;;;;;5016769;28;20121;-68
2024/03/08 02:13:50;;;;;;;38.17;15.93;;;2.40;99.90;;;;;;5016128;28;20117;-67
2024/03/08 02:16:21;;;;;;;31.15;14.38;;;2.40;99.90;;;;;;5016724;28;20184;-68
2024/03/08 02:18:46;;;;;;;41.53;16.05;;;2.40;99.90;;;;;;5019653;28;20044;-69
2024/03/08 02:21:13;;;;;;;38.95;15.18;;;2.40;99.90;;;;;;5016843;28;20093;-68
2024/03/08 02:23:40;;;;;;;39.80;15.65;;;2.30;99.90;;;;;;5012772;28;20175;-68
2024/03/08 02:26:07;;;;;;;29.75;14.65;;;2.30;99.90;;;;;;5013796;28;20041;-68
2024/03/08 02:28:33;;;;;;;35.83;15.10;;;2.30;99.90;;;;;;5013959;28;20087;-68
2024/03/08 02:30:58;;;;;;;31.02;14.23;;;2.30;99.90;;;;;;5013268;28;20117;-69
2024/03/08 02:33:25;;;;;;;38.03;14.88;;;2.20;99.90;;;;;;5015887;28;20499;-67
2024/03/08 02:35:51;;;;;;;36.28;14.98;;;2.20;99.90;;;;;;5012610;28;20050;-68
2024/03/08 02:38:22;;;;;;;38.47;15.57;;;2.20;99.90;;;;;;5012326;28;20148;-68
2024/03/08 02:40:49;;;;;;;37.47;15.32;;;2.10;99.90;;;;;;5012151;28;20042;-69
2024/03/08 02:43:16;;;;;;;35.17;15.05;;;2.10;99.90;;;;;;5008248;28;20644;-67
2024/03/08 02:45:42;;;;;;;31.40;14.27;;;2.10;99.90;;;;;;5007995;28;20545;-67
2024/03/08 02:48:08;;;;;;;37.35;14.80;;;2.10;99.90;;;;;;5013762;28;20123;-67
2024/03/08 02:50:37;;;;;;;36.78;15.52;;;2.00;99.90;;;;;;5009852;28;20042;-67
2024/03/08 02:53:03;;;;;;;33.75;14.55;;;2.00;99.90;;;;;;5013473;28;20470;-70
2024/03/08 02:55:29;;;;;;;39.88;15.18;;;2.00;99.90;;;;;;5007000;28;20033;-67
2024/03/08 02:57:55;;;;;;;34.58;15.30;;;2.00;99.90;;;;;;5006824;28;20030;-67
2024/03/08 03:00:22;;;;;;;35.95;15.00;;;2.00;99.90;;;;;;5008812;28;20048;-67
2024/03/08 03:02:54;;;;;;;45.90;17.03;;;1.90;99.90;;;;;;5013846;28;20129;-68
2024/03/08 03:05:20;;;;;;;36.72;15.15;;;1.90;99.90;;;;;;5006287;28;20280;-68
2024/03/08 03:07:46;;;;;;;34.35;14.95;;;1.90;99.90;;;;;;5010598;28;20053;-68
2024/03/08 03:10:12;;;;;;;39.50;15.32;;;1.90;99.90;;;;;;5012562;28;20049;-67
2024/03/08 03:12:38;;;;;;;37.65;14.65;;;1.80;99.90;;;;;;5009160;28;20034;-68
2024/03/08 03:15:04;;;;;;;39.85;14.45;;;1.80;99.90;;;;;;5011101;28;20028;-67
2024/03/08 03:17:30;;;;;;;35.42;14.13;;;1.80;99.90;;;;;;5006843;28;20030;-69
2024/03/08 03:19:55;;;;;;;34.80;15.52;;;1.80;99.90;;;;;;5006452;28;20092;-68
2024/03/08 03:22:21;;;;;;;42.92;15.93;;;1.80;99.90;;;;;;5007228;28;20041;-67
2024/03/08 03:24:46;;;;;;;38.75;16.20;;;1.80;99.90;;;;;;5011913;28;20041;-68
2024/03/08 03:27:13;;;;;;;37.05;15.82;;;1.70;99.90;;;;;;5012851;28;20549;-68
2024/03/08 03:29:42;;;;;;;36.17;15.85;;;1.80;99.90;;;;;;5016981;28;20442;-69
2024/03/08 03:32:08;;;;;;;37.85;15.65;;;1.70;99.90;;;;;;5012629;28;20034;-68
2024/03/08 03:34:36;;;;;;;38.33;16.02;;;1.70;99.90;;;;;;5017638;28;20032;-67
2024/03/08 03:37:03;;;;;;;35.67;15.30;;;1.70;99.90;;;;;;5018914;28;20576;-68
2024/03/08 03:39:34;;;;;;;36.10;15.23;;;1.70;99.90;;;;;;5020730;28;20116;-68
2024/03/08 03:42:01;;;;;;;38.75;14.90;;;1.70;99.90;;;;;;5015292;28;20033;-69
2024/03/08 03:44:27;;;;;;;;;;;1.70;99.90;;;;;;5015293;28;20672;-67
2024/03/08 03:46:53;;;;;;;31.92;14.30;;;1.60;99.90;;;;;;5016997;28;19913;-67
2024/03/08 03:49:19;;;;;;;38.67;15.77;;;1.60;99.90;;;;;;5019280;28;20125;-68
2024/03/08 03:51:44;;;;;;;37.45;15.30;;;1.60;99.90;;;;;;5015076;28;20036;-67
2024/03/08 03:54:10;;;;;;;37.70;14.70;;;1.60;99.90;;;;;;5020930;28;20537;-66
2024/03/08 03:56:36;;;;;;;34.00;15.05;;;1.60;99.90;;;;;;5014183;28;20037;-66
2024/03/08 03:59:02;;;;;;;37.10;15.73;;;1.60;99.90;;;;;;5018627;28;20178;-66
2024/03/08 04:01:29;;;;;;;34.40;15.13;;;1.60;99.90;;;;;;5010283;28;20037;-66
2024/03/08 04:03:54;;;;;;;39.50;15.77;;;1.50;99.90;;;;;;4997349;28;20029;-66
2024/03/08 04:06:20;;;;;;;37.00;15.23;;;1.50;99.90;;;;;;5004403;28;20050;-66
2024/03/08 04:08:46;;;;;;;35.75;15.55;;;1.50;99.90;;;;;;4996684;28;20184;-65
2024/03/08 04:11:11;;;;;;;33.25;14.73;;;1.50;99.90;;;;;;5006805;28;20030;-66
2024/03/08 04:13:37;;;;;;;44.15;16.48;;;1.50;99.90;;;;;;5014616;28;20088;-66
2024/03/08 04:16:07;;;;;;;35.38;15.02;;;1.40;99.90;;;;;;5008214;28;20088;-67
2024/03/08 04:18:35;;;;;;;35.33;15.57;;;1.40;99.90;;;;;;5007735;28;20045;-66
2024/03/08 04:21:02;;;;;;;47.28;17.25;;;1.40;99.90;;;;;;5008086;28;20553;-67
2024/03/08 04:23:28;;;;;;;36.22;15.15;;;1.40;99.90;;;;;;5006864;28;20037;-67
2024/03/08 04:25:54;;;;;;;45.42;16.30;;;1.40;99.90;;;;;;5011558;28;20040;-67
2024/03/08 04:28:19;;;;;;;40.75;15.70;;;1.40;99.90;;;;;;5007688;28;20730;-66
2024/03/08 04:30:46;;;;;;;38.92;16.08;;;1.40;99.90;;;;;;5008025;28;20106;-67
2024/03/08 04:33:11;;;;;;;41.30;16.67;;;1.40;99.90;;;;;;5011783;28;20033;-67
2024/03/08 04:35:37;;;;;;;44.08;16.58;;;1.40;99.90;;;;;;5016544;28;20064;-66
2024/03/08 04:38:05;;;;;;;45.75;16.73;;;1.30;99.90;;;;;;5015504;28;20026;-67
2024/03/08 04:40:31;;;;;;;43.25;17.65;;;1.30;99.90;;;;;;5011539;28;20398;-66
2024/03/08 04:42:59;;;;;;;40.53;17.00;;;1.30;99.90;;;;;;5010934;28;20125;-66
2024/03/08 04:45:25;;;;;;;39.58;15.88;;;1.30;99.90;;;;;;5013599;28;20499;-66
2024/03/08 04:47:52;;;;;;;40.77;16.50;;;1.30;99.90;;;;;;5005648;28;20045;-67
2024/03/08 04:50:19;;;;;;;43.35;17.23;;;1.30;99.90;;;;;;5015260;28;20042;-66
2024/03/08 04:52:44;;;;;;;46.73;17.17;;;1.30;99.90;;;;;;5008592;28;20034;-66
2024/03/08 04:55:10;;;;;;;45.05;17.23;;;1.20;99.90;;;;;;5006823;28;20040;-68
2024/03/08 04:57:36;;;;;;;43.75;17.30;;;1.20;99.90;;;;;;5012107;28;20045;-67
2024/03/08 05:00:07;;;;;;;43.30;17.52;;;1.20;99.90;;;;;;5007572;28;20140;-66
2024/03/08 05:02:33;;;;;;;39.88;15.30;;;1.20;99.90;;;;;;5006055;28;20039;-67
2024/03/08 05:04:58;;;;;;;36.75;16.77;;;1.20;99.90;;;;;;5006412;28;20506;-66
2024/03/08 05:07:24;;;;;;;42.60;18.27;;;1.20;99.90;;;;;;5006671;28;20039;-66
2024/03/08 05:09:51;;;;;;;40.97;16.92;;;1.10;99.90;;;;;;5006100;28;20070;-66
2024/03/08 05:12:18;;;;;;;39.70;16.02;;;1.10;99.90;;;;;;5008063;28;20057;-68
2024/03/08 05:14:46;;;;;;;44.38;17.67;;;1.10;99.90;;;;;;5003347;28;20125;-66
2024/03/08 05:17:12;;;;;;;41.95;17.73;;;1.10;99.90;;;;;;5008392;28;20034;-67
2024/03/08 05:19:38;;;;;;;44.80;17.48;;;1.10;99.90;;;;;;5007834;28;20041;-67
2024/03/08 05:22:04;;;;;;;41.83;18.00;;;1.10;99.90;;;;;;5007538;28;20165;-67
2024/03/08 05:24:30;;;;;;;45.10;17.95;;;1.10;99.90;;;;;;5008580;28;20059;-66
2024/03/08 05:26:55;;;;;;;39.58;16.50;;;1.10;99.90;;;;;;5009977;28;20101;-66
2024/03/08 05:29:21;;;;;;;49.95;18.25;;;1.10;99.90;;;;;;5009350;28;20056;-67
2024/03/08 05:31:49;;;;;;;42.42;17.98;;;1.10;99.90;;;;;;5005116;28;20635;-67
2024/03/08 05:34:16;;;;;;;46.25;17.80;;;1.10;99.90;;;;;;5007451;28;20068;-67
2024/03/08 05:36:46;;;;;;;46.85;18.83;;;1.10;99.90;;;;;;5006429;28;20065;-66
2024/03/08 05:39:12;;;;;;;41.72;17.67;;;1.10;99.90;;;;;;5019589;28;20068;-67
2024/03/08 05:41:45;;;;;;;44.90;18.90;;;1.10;99.90;;;;;;5011624;28;20572;-67
2024/03/08 05:44:12;;;;;;;44.80;18.17;;;1.10;99.90;;;;;;5006767;28;20124;-67
2024/03/08 05:46:38;;;;;;;46.28;18.60;;;1.10;99.90;;;;;;5006693;28;20461;-66
2024/03/08 05:49:09;;;;;;;50.28;20.15;;;1.10;99.90;;;;;;5005940;28;20088;-67
2024/03/08 05:51:37;;;;;;;46.47;18.08;;;1.10;99.90;;;;;;5014615;28;20025;-67
2024/03/08 05:54:05;;;;;;;48.47;18.77;;;1.10;99.90;;;;;;5009116;28;20025;-67
2024/03/08 05:56:33;;;;;;;37.42;18.00;;;1.10;99.90;;;;;;5008118;28;20044;-67
2024/03/08 05:58:58;;;;;;;44.47;18.67;;;1.10;99.90;;;;;;5007504;28;20038;-67
2024/03/08 06:01:27;;;;;;;41.47;18.52;;;1.10;99.90;;;;;;5008697;28;20029;-67
2024/03/08 06:03:55;;;;;;;44.60;18.80;;;1.20;99.90;;;;;;5007279;28;20421;-67
2024/03/08 06:06:22;;;;;;;42.70;18.58;;;1.20;99.90;;;;;;5009896;28;20026;-67
2024/03/08 06:08:51;;;;;;;47.15;19.08;;;1.20;99.90;;;;;;5005040;28;20527;-67
2024/03/08 06:11:18;;;;;;;41.55;18.33;;;1.20;99.90;;;;;;5015948;28;20341;-66
2024/03/08 06:13:44;;;;;;;43.97;18.63;;;1.20;99.90;;;;;;5014081;28;20558;-67
2024/03/08 06:16:10;;;;;;;49.30;19.90;;;1.20;99.90;;;;;;5010112;28;20034;-67
2024/03/08 06:18:36;;;;;;;42.40;19.42;;;1.20;99.90;;;;;;4997650;28;20057;-67
2024/03/08 06:21:06;;;;;;;42.55;17.77;;;1.20;99.90;;;;;;5014250;28;20084;-67
2024/03/08 06:23:38;;;;;;;47.83;19.45;;;1.30;99.90;;;;;;5017246;28;20057;-67
2024/03/08 06:26:07;;;;;;;48.78;19.17;;;1.20;99.90;;;;;;5016716;28;20037;-67
2024/03/08 06:28:34;;;;;;;47.88;19.00;;;1.30;99.90;;;;;;5010333;28;20099;-67
2024/03/08 06:31:00;;;;;;;55.75;20.13;;;1.30;99.90;;;;;;5014602;28;20038;-66
2024/03/08 06:33:26;;;;;;;49.40;20.08;;;1.30;99.90;;;;;;5019973;28;20509;-68
2024/03/08 06:35:52;;;;;;;50.78;19.92;;;1.40;99.90;;;;;;5017190;28;20041;-67
2024/03/08 06:38:19;;;;;;;43.75;19.95;;;1.40;99.90;;;;;;5007145;28;20034;-66
2024/03/08 06:40:47;;;;;;;53.13;20.25;;;1.40;99.90;;;;;;5003646;28;20034;-66
2024/03/08 06:43:15;;;;;;;45.53;19.13;;;1.50;99.90;;;;;;5002430;28;20025;-66
2024/03/08 06:45:45;;;;;;;49.97;20.38;;;1.50;99.90;;;;;;5017717;28;20049;-67
2024/03/08 06:48:11;;;;;;;51.67;20.30;;;1.50;99.90;;;;;;5017821;28;20041;-66
2024/03/08 06:50:36;;;;;;;46.72;20.08;;;1.60;99.90;;;;;;5006227;28;20037;-67
2024/03/08 06:53:03;;;;;;;42.03;19.15;;;1.60;99.90;;;;;;5015543;28;20041;-67
2024/03/08 06:55:28;;;;;;;49.53;20.13;;;1.70;99.90;;;;;;5018974;28;20087;-69
2024/03/08 06:57:54;;;;;;;46.53;19.75;;;1.70;99.90;;;;;;5014959;28;20414;-68
2024/03/08 07:00:20;;;;;;;41.22;18.92;;;1.80;99.90;;;;;;5017313;28;20121;-66
2024/03/08 07:02:46;;;;;;;46.03;20.08;;;1.80;99.90;;;;;;5019397;28;20045;-66
2024/03/08 07:05:12;;;;;;;48.25;20.98;;;1.80;99.90;;;;;;5016303;28;20049;-67
2024/03/08 07:07:37;;;;;;;45.38;20.42;;;1.80;99.90;;;;;;5018602;28;20052;-66
2024/03/08 07:10:04;;;;;;;51.85;20.20;;;1.90;99.90;;;;;;5015727;28;20053;-67
2024/03/08 07:12:29;;;;;;;40.22;19.00;;;1.90;99.90;;;;;;5019891;28;20057;-66
2024/03/08 07:14:55;;;;;;;49.03;20.13;;;1.90;99.90;;;;;;5021543;28;20049;-67
2024/03/08 07:17:21;;;;;;;44.67;19.20;;;2.00;99.90;;;;;;5022525;28;20037;-67
2024/03/08 07:19:47;;;;;;;51.42;20.60;;;2.00;99.90;;;;;;5022350;28;20033;-67
2024/03/08 07:22:12;;;;;;;48.00;19.63;;;2.00;99.90;;;;;;5023210;28;20033;-66
2024/03/08 07:27:14;;;;;;;48.70;19.75;;;2.10;99.90;;;;;;5022819;28;20125;-66
2024/03/08 07:29:39;;;;;;;39.00;19.25;;;2.20;99.90;;;;;;5022175;28;20117;-67
2024/03/08 07:32:25;;;;;;;45.22;20.67;;;2.30;99.90;;;;;;5016208;28;20073;-66
2024/03/08 07:34:51;;;;;;;46.80;19.65;;;2.30;99.90;;;;;;5019715;28;20049;-67
2024/03/08 07:37:17;;;;;;;49.38;20.10;;;2.40;99.90;;;;;;5021260;28;20034;-66
2024/03/08 07:39:43;;;;;;;47.03;20.23;;;2.40;99.90;;;;;;5019644;28;20142;-66
2024/03/08 07:42:10;;;;;;;47.72;20.60;;;2.50;99.90;;;;;;5020756;28;20109;-67
2024/03/08 07:44:36;;;;;;;49.03;20.45;;;2.50;99.90;;;;;;5020593;28;20026;-65
2024/03/08 07:47:03;;;;;;;40.05;19.35;;;2.60;99.90;;;;;;5018939;28;20033;-67
2024/03/08 07:49:30;;;;;;;43.37;19.50;;;2.60;99.90;;;;;;5017981;28;21302;-69
2024/03/08 07:51:59;;;;;;;45.45;19.67;;;2.60;99.90;;;;;;5020041;28;20306;-67
2024/03/08 07:54:25;;;;;;;49.63;19.95;;;2.70;99.90;;;;;;5019808;28;20056;-67
2024/03/08 07:56:52;;;;;;;43.40;19.42;;;2.80;99.90;;;;;;5013105;28;20034;-67
2024/03/08 07:59:18;;;;;;;53.13;21.10;;;2.90;99.90;;;;;;5018245;28;20135;-68
2024/03/08 08:01:44;;;;;;;43.13;19.60;;;2.90;99.90;;;;;;5019360;28;20514;-67
2024/03/08 08:04:12;;;;;;;43.33;21.17;;;3.00;99.90;;;;;;5015545;28;20128;-67
2024/03/08 08:06:43;;;;;;;;;;;3.10;99.90;;;;;;5016863;28;20037;-68
2024/03/08 08:09:15;;;;;;;43.22;18.63;;;3.10;99.90;;;;;;5016483;28;19956;-67
2024/03/08 08:11:43;;;;;;;41.28;19.50;;;3.20;99.90;;;;;;5017255;28;20033;-67
2024/03/08 08:14:09;;;;;;;45.80;20.58;;;3.30;99.90;;;;;;5018961;28;20116;-65
2024/03/08 08:16:36;;;;;;;47.40;19.58;;;3.40;99.90;;;;;;5013927;28;20033;-66
2024/03/08 08:19:07;;;;;;;49.70;20.33;;;3.40;99.90;;;;;;5021432;28;20037;-66
2024/03/08 08:21:34;;;;;;;39.70;19.85;;;3.50;99.90;;;;;;5015272;28;20030;-67
2024/03/08 08:24:00;;;;;;;47.35;19.92;;;3.60;99.90;;;;;;5019085;28;20662;-67
2024/03/08 08:26:26;;;;;;;49.92;20.45;;;3.70;99.90;;;;;;5020222;28;20037;-67
2024/03/08 08:28:52;;;;;;;44.28;20.92;;;3.80;99.90;;;;;;5070709;28;20101;-66
2024/03/08 08:31:19;;;;;;;41.63;20.77;;;3.80;99.90;;;;;;5078037;28;20032;-68
2024/03/08 08:33:45;;;;;;;43.50;20.48;;;3.90;99.90;;;;;;5073343;28;20070;-68
2024/03/08 08:36:10;;;;;;;41.17;20.38;;;4.00;99.90;;;;;;5074929;28;20764;-68
2024/03/08 08:38:36;;;;;;;47.92;21.50;;;4.00;99.90;;;;;;5077228;28;20031;-68
2024/03/08 08:41:02;;;;;;;44.75;20.95;;;4.10;99.90;;;;;;5063392;28;20102;-67
2024/03/08 08:43:28;;;;;;;44.28;19.95;;;4.20;99.90;;;;;;5072436;28;20085;-67
2024/03/08 08:45:55;;;;;;;52.60;21.15;;;4.30;99.90;;;;;;5064705;28;20032;-67
2024/03/08 08:48:21;;;;;;;50.17;22.70;;;4.40;99.90;;;;;;5077040;28;20078;-67
2024/03/08 08:50:46;;;;;;;48.47;21.90;;;4.40;99.90;;;;;;5074088;28;20036;-66
2024/03/08 08:53:14;;;;;;;46.22;20.60;;;4.50;99.90;;;;;;5072753;28;20044;-67
2024/03/08 08:55:40;;;;;;;41.08;20.77;;;4.60;99.90;;;;;;5075085;28;20055;-67
2024/03/08 08:58:07;;;;;;;46.00;20.92;;;4.70;99.90;;;;;;5060739;28;20163;-67
2024/03/08 09:00:34;;;;;;;46.90;20.38;;;4.80;99.90;;;;;;5074607;28;20548;-67
2024/03/08 09:03:00;;;;;;;44.83;20.63;;;4.90;99.90;;;;;;5077954;28;20089;-68
2024/03/08 09:05:26;;;;;;;44.85;20.25;;;5.00;99.90;;;;;;5057169;28;20036;-68
2024/03/08 09:07:52;;;;;;;41.92;20.45;;;5.10;99.90;;;;;;5079703;28;20093;-68
2024/03/08 09:10:18;;;;;;;42.95;20.83;;;5.20;99.90;;;;;;5075516;28;20040;-68
2024/03/08 09:12:44;;;;;;;43.00;20.35;;;5.20;99.90;;;;;;5075416;28;20031;-67
2024/03/08 09:15:13;;;;;;;42.13;19.73;;;5.40;99.80;;;;;;5077725;28;20074;-67
2024/03/08 09:17:44;;;;;;;40.55;20.38;;;5.50;99.80;;;;;;5078209;28;20089;-68
2024/03/08 09:20:10;;;;;;;41.63;19.00;;;5.50;99.60;;;;;;5077468;28;20047;-67
2024/03/08 09:22:36;;;;;;;40.75;19.50;;;5.70;99.70;;;;;;5081057;28;20596;-67
2024/03/08 09:25:05;;;;;;;46.78;21.73;;;5.80;99.70;;;;;;5072077;28;20111;-68
2024/03/08 09:27:30;;;;;;;38.42;19.73;;;5.90;99.60;;;;;;5078690;28;20105;-68
2024/03/08 09:29:56;;;;;;;44.22;20.15;;;6.00;99.40;;;;;;5068661;28;20024;-68
2024/03/08 09:32:22;;;;;;;43.42;20.02;;;6.20;99.00;;;;;;5063681;28;20035;-68
2024/03/08 09:34:48;;;;;;;38.38;19.02;;;6.20;98.70;;;;;;5080557;28;20033;-68
2024/03/08 09:37:14;;;;;;;43.67;18.75;;;6.30;98.80;;;;;;5084586;28;20090;-67
2024/03/08 09:39:41;;;;;;;39.97;19.95;;;6.40;98.60;;;;;;5074637;28;20078;-68
2024/03/08 09:42:06;;;;;;;37.38;19.48;;;6.50;98.40;;;;;;5073810;28;20025;-69
2024/03/08 09:44:32;;;;;;;42.28;20.08;;;6.70;98.20;;;;;;5051185;28;20047;-68
2024/03/08 09:47:02;;;;;;;37.70;18.92;;;6.80;98.10;;;;;;5074205;28;20107;-68
2024/03/08 09:49:28;;;;;;;36.13;19.52;;;7.00;97.40;;;;;;5077099;28;20513;-68
2024/03/08 09:51:55;;;;;;;39.00;19.25;;;7.00;97.30;;;;;;5081115;28;20036;-68
2024/03/08 09:54:22;;;;;;;38.70;19.85;;;7.20;97.40;;;;;;5084901;28;20043;-67
2024/03/08 09:56:50;;;;;;;36.40;19.17;;;7.30;97.00;;;;;;5082462;28;20028;-67
2024/03/08 10:01:41;;;;;;;41.97;18.90;;;7.50;96.20;;;;;;5072528;28;20050;-68
2024/03/08 10:04:07;;;;;;;38.50;18.63;;;7.60;96.40;;;;;;5077463;28;20429;-67
2024/03/08 10:06:33;;;;;;;37.58;17.50;;;7.70;96.10;;;;;;5083577;28;20067;-67
2024/03/08 10:08:58;;;;;;;36.13;18.63;;;7.80;96.40;;;;;;5091013;28;20223;-67
2024/03/08 10:11:27;;;;;;;33.53;17.33;;;8.00;96.20;;;;;;5079647;28;20025;-68
2024/03/08 10:13:53;;;;;;;39.47;17.52;;;8.10;95.80;;;;;;5070416;28;20060;-68
2024/03/08 10:16:18;;;;;;;42.47;18.52;;;8.20;95.80;;;;;;5084186;28;20632;-67
2024/03/08 10:18:47;;;;;;;34.72;18.23;;;8.30;95.60;;;;;;5086579;28;20039;-68
2024/03/08 10:21:13;;;;;;;38.65;18.75;;;8.40;95.50;;;;;;5075053;28;20465;-67
2024/03/08 10:23:43;;;;;;;34.33;18.42;;;8.50;95.50;;;;;;5063586;28;20043;-68
2024/03/08 10:26:17;;;;;;;38.78;18.55;;;8.60;95.00;;;;;;5083266;28;20025;-68
2024/03/08 10:28:48;;;;;;;33.13;17.98;;;8.70;95.20;;;;;;5076449;28;20162;-68
2024/03/08 10:31:17;;;;;;;38.05;19.45;;;8.90;94.90;;;;;;5074138;28;20024;-68
2024/03/08 10:33:44;;;;;;;41.13;19.83;;;9.10;94.90;;;;;;5062356;28;20059;-67
2024/03/08 10:36:11;;;;;;;34.35;17.20;;;9.40;94.60;;;;;;5084995;28;20086;-69
2024/03/08 10:38:40;;;;;;;37.40;19.20;;;9.80;94.80;;;;;;5079169;28;20048;-69
2024/03/08 10:41:07;;;;;;;36.00;18.95;;;10.00;94.30;;;;;;5061303;28;20025;-68
2024/03/08 10:44:08;;;;;;;36.40;18.85;;;10.20;93.60;;;;;;5078317;28;20077;-68
2024/03/08 10:47:00;;;;;;;33.92;18.25;;;10.60;94.20;;;;;;5077702;28;20165;-68
2024/03/08 10:49:34;;;;;;;31.40;18.13;;;11.10;93.00;;;;;;5077707;28;20044;-70
2024/03/08 10:52:05;;;;;;;31.20;18.20;;;11.20;93.40;;;;;;5077385;28;20349;-69
2024/03/08 10:54:33;;;;;;;32.90;17.42;;;11.80;92.90;;;;;;5082955;28;20047;-69
2024/03/08 10:57:01;;;;;;;37.83;18.38;;;12.00;92.20;;;;;;5078710;28;20711;-69
2024/03/08 10:59:27;;;;;;;30.83;17.67;;;11.70;91.50;;;;;;5077906;28;20028;-69
2024/03/08 11:01:53;;;;;;;33.00;18.17;;;12.20;92.60;;;;;;5080213;28;20145;-68
2024/03/08 11:04:22;;;;;;;37.38;18.67;;;12.20;91.70;;;;;;5079815;28;20032;-69
2024/03/08 11:06:52;;;;;;;35.63;18.75;;;12.30;91.10;;;;;;5075589;28;20040;-68
2024/03/08 11:09:29;;;;;;;36.40;18.05;;;12.10;90.60;;;;;;5077138;28;20031;-69
2024/03/08 11:12:20;;;;;;;30.10;17.05;;;12.50;91.40;;;;;;5074846;28;20052;-68
2024/03/08 11:14:50;;;;;;;34.20;17.80;;;12.70;90.60;;;;;;5060783;28;20719;-69
2024/03/08 11:17:27;;;;;;;32.90;17.40;;;13.00;90.20;;;;;;5059555;28;20038;-70
2024/03/08 11:19:56;;;;;;;28.95;17.35;;;13.00;90.20;;;;;;5075854;28;20040;-70
2024/03/08 11:22:33;;;;;;;30.13;17.25;;;13.20;89.60;;;;;;5061400;28;20025;-70
2024/03/08 11:25:02;;;;;;;30.25;17.67;;;13.40;89.30;;;;;;5058514;28;20216;-69
2024/03/08 11:27:31;;;;;;;32.88;18.63;;;13.30;89.90;;;;;;5070075;28;20024;-70
2024/03/08 11:30:11;;;;;;;33.85;18.55;;;13.20;88.80;;;;;;5074083;28;20455;-69
2024/03/08 11:32:38;;;;;;;34.92;19.30;;;13.40;88.20;;;;;;5085338;28;20032;-69
2024/03/08 11:35:08;;;;;;;34.80;17.42;;;13.50;88.60;;;;;;5076466;28;20544;-70
2024/03/08 11:37:35;;;;;;;34.65;19.02;;;13.90;87.90;;;;;;5083717;28;20119;-68
2024/03/08 11:40:04;;;;;;;33.57;18.10;;;14.00;86.50;;;;;;5076583;28;20037;-70
2024/03/08 11:42:30;;;;;;;35.75;19.63;;;14.40;85.90;;;;;;5082173;28;20047;-68
2024/03/08 11:44:56;;;;;;;32.95;18.30;;;15.00;85.50;;;;;;5081385;28;20024;-69
2024/03/08 11:47:26;;;;;;;30.58;19.17;;;15.40;84.30;;;;;;5075508;28;20036;-69
2024/03/08 11:49:53;;;;;;;30.65;19.77;;;15.60;84.00;;;;;;5075599;28;20028;-69
2024/03/08 11:52:19;;;;;;;32.90;18.15;;;16.00;83.20;;;;;;5074004;28;20060;-69
2024/03/08 11:54:56;;;;;;;31.65;19.35;;;16.00;82.60;;;;;;5034275;28;20060;-70
2024/03/08 11:57:26;;;;;;;32.20;18.63;;;15.70;82.60;;;;;;5093359;28;20039;-69
2024/03/08 11:59:52;;;;;;;33.30;19.05;;;16.20;81.70;;;;;;5088003;28;20047;-69
2024/03/08 12:02:19;;;;;;;35.80;19.17;;;16.00;81.80;;;;;;5082458;28;20085;-70
2024/03/08 12:04:48;;;;;;;37.60;18.70;;;15.80;80.90;;;;;;5076938;28;20032;-70
2024/03/08 12:07:18;;;;;;;33.40;19.25;;;15.90;80.70;;;;;;5071919;28;20024;-70
2024/03/08 12:09:46;;;;;;;28.33;17.80;;;16.10;81.40;;;;;;5077367;28;20039;-69
2024/03/08 12:12:12;;;;;;;31.13;17.75;;;16.20;79.70;;;;;;5071988;28;20040;-70
2024/03/08 12:14:43;;;;;;;34.38;18.52;;;15.90;79.80;;;;;;5081798;28;20045;-69
2024/03/08 12:17:09;;;;;;;36.97;19.38;;;16.60;82.20;;;;;;5073891;28;20047;-69
2024/03/08 12:19:37;;;;;;;32.03;18.25;;;16.10;79.40;;;;;;5081535;28;20043;-68
2024/03/08 12:22:10;;;;;;;;;;;15.90;79.20;;;;;;5061306;28;20033;-69
2024/03/08 12:24:37;;;;;;;35.90;20.40;;;16.00;79.60;;;;;;5081478;28;19950;-71
2024/03/08 12:27:17;;;;;;;30.33;17.55;;;15.70;79.80;;;;;;5081625;28;20400;-70
2024/03/08 12:29:43;;;;;;;28.73;18.10;;;16.00;82.10;;;;;;5073228;28;20439;-69
2024/03/08 12:32:11;;;;;;;35.38;19.45;;;15.80;80.50;;;;;;5066403;28;20100;-70
2024/03/08 12:34:36;;;;;;;;;;;15.90;79.00;;;;;;5069337;28;20044;-70
2024/03/08 12:37:02;;;;;;;30.30;17.70;;;16.20;78.10;;;;;;5079922;28;19926;-69
2024/03/08 12:39:30;;;;;;;29.15;17.83;;;16.20;78.30;;;;;;5079325;28;20107;-72
2024/03/08 12:41:59;;;;;;;29.45;18.15;;;16.50;78.60;;;;;;5075269;28;20073;-71